Time,TemperatureF,DewpointF,PressureIn,WindDirection,WindDirectionDegrees,WindSpeedMPH,WindSpeedGustMPH,Humidity,HourlyPrecipIn,Conditions,Clouds,dailyrainin,SoftwareType,DateUTC
2013-08-22 00:13:00,74.0,70.0,30.01,SSE,168,0.0,0.0,86,0.00,,,0.00,,2013-08-22 05:13:00,
2013-08-22 00:22:00,74.0,69.0,30.01,SSE,168,0.0,0.0,85,0.00,,,0.00,,2013-08-22 05:22:00,
2013-08-22 00:43:00,74.0,69.0,30.01,SSE,168,0.0,0.0,85,0.00,,,0.00,,2013-08-22 05:43:00,
2013-08-22 00:52:00,74.0,69.0,30.01,SSE,168,0.0,0.0,84,0.00,,,0.00,,2013-08-22 05:52:00,
2013-08-22 01:12:00,74.0,69.0,30.02,SSE,168,0.0,0.0,84,0.00,,,0.00,,2013-08-22 06:12:00,
2013-08-22 01:22:00,73.0,68.0,30.02,SSE,168,0.0,0.0,85,0.00,,,0.00,,2013-08-22 06:22:00,
2013-08-22 01:42:00,73.0,69.0,30.03,SSE,168,0.0,0.0,86,0.00,,,0.00,,2013-08-22 06:42:00,
2013-08-22 01:52:00,73.0,69.0,30.03,SSE,168,0.0,0.0,86,0.00,,,0.00,,2013-08-22 06:52:00,
2013-08-22 02:12:00,73.0,69.0,30.03,SSE,168,0.0,0.0,87,0.00,,,0.00,,2013-08-22 07:12:00,
2013-08-22 02:22:00,72.0,68.0,30.03,SSE,168,0.0,0.0,87,0.00,,,0.00,,2013-08-22 07:22:00,
2013-08-22 02:42:00,72.0,68.0,30.03,SSE,167,0.0,0.0,87,0.00,,,0.00,,2013-08-22 07:42:00,
2013-08-22 02:52:00,73.0,69.0,30.03,SSE,168,0.0,0.0,86,0.00,,,0.00,,2013-08-22 07:52:00,
2013-08-22 03:12:00,73.0,68.0,30.02,SSE,167,0.0,0.0,85,0.00,,,0.00,,2013-08-22 08:12:00,
2013-08-22 03:22:00,72.0,68.0,30.02,SSE,168,0.0,0.0,86,0.00,,,0.00,,2013-08-22 08:22:00,
2013-08-22 03:53:00,72.0,68.0,30.02,SSE,168,0.0,0.0,87,0.00,,,0.00,,2013-08-22 08:53:00,
2013-08-22 04:11:00,71.0,67.0,30.02,SSE,168,0.0,0.0,88,0.00,,,0.00,,2013-08-22 09:11:00,
2013-08-22 04:22:00,71.0,67.0,29.99,SSE,168,0.0,0.0,88,0.00,,,0.00,,2013-08-22 09:22:00,
2013-08-22 04:53:00,71.0,67.0,30.03,SSE,168,0.0,0.0,88,0.00,,,0.00,,2013-08-22 09:53:00,
2013-08-22 05:12:00,71.0,67.0,30.03,SSE,167,0.0,0.0,88,0.00,,,0.00,,2013-08-22 10:12:00,
2013-08-22 05:23:00,72.0,68.0,30.03,SSE,168,0.0,0.0,88,0.00,,,0.00,,2013-08-22 10:23:00,
2013-08-22 05:42:00,71.0,67.0,30.03,SSE,167,0.0,0.0,88,0.00,,,0.00,,2013-08-22 10:42:00,
2013-08-22 07:52:00,69.0,66.0,30.08,SSE,168,0.0,0.0,91,0.00,,,0.00,,2013-08-22 12:52:00,
2013-08-22 08:12:00,70.0,68.0,30.08,SSE,168,0.0,0.0,92,0.00,,,0.00,,2013-08-22 13:12:00,
2013-08-22 08:22:00,70.0,68.0,30.07,SSE,168,0.0,0.0,92,0.00,,,0.00,,2013-08-22 13:22:00,
2013-08-22 08:52:00,71.0,69.0,30.07,SSE,168,0.0,0.0,92,0.00,,,0.00,,2013-08-22 13:52:00,
2013-08-22 09:11:00,72.0,69.0,30.06,SSE,168,0.0,0.0,91,0.00,,,0.00,,2013-08-22 14:11:00,
2013-08-22 09:22:00,72.0,69.0,30.06,SSE,168,0.0,0.0,89,0.00,,,0.00,,2013-08-22 14:22:00,
2013-08-22 09:52:00,74.0,69.0,30.04,SSE,168,0.0,0.0,85,0.00,,,0.00,,2013-08-22 14:52:00,
2013-08-22 10:12:00,75.0,70.0,30.04,SSE,168,0.0,0.0,84,0.00,,,0.00,,2013-08-22 15:12:00,
2013-08-22 10:22:00,76.0,69.0,30.04,SSE,168,0.0,0.0,80,0.00,,,0.00,,2013-08-22 15:22:00,
2013-08-22 10:43:00,77.0,70.0,30.04,SSE,168,0.0,0.0,80,0.00,,,0.00,,2013-08-22 15:43:00,
2013-08-22 10:54:00,77.0,70.0,30.05,SSE,168,0.0,0.0,79,0.00,,,0.00,,2013-08-22 15:54:00,
2013-08-22 11:14:00,78.0,69.0,30.04,SSE,168,0.0,0.0,74,0.00,,,0.00,,2013-08-22 16:14:00,
2013-08-22 11:24:00,80.0,71.0,30.04,SSE,168,0.0,0.0,74,0.00,,,0.00,,2013-08-22 16:24:00,
2013-08-22 11:53:00,81.0,70.0,30.04,South,173,3.0,3.0,69,0.00,,,0.00,,2013-08-22 16:53:00,
2013-08-22 12:12:00,81.0,69.0,30.03,South,171,4.0,4.0,68,0.00,,,0.00,,2013-08-22 17:12:00,
2013-08-22 12:24:00,81.0,69.0,30.04,South,172,1.0,1.0,67,0.00,,,0.00,,2013-08-22 17:24:00,
2013-08-22 12:43:00,81.0,69.0,30.03,South,172,5.0,5.0,68,0.00,,,0.00,,2013-08-22 17:43:00,
2013-08-22 12:53:00,82.0,71.0,30.03,South,174,0.0,0.0,69,0.00,,,0.00,,2013-08-22 17:53:00,
2013-08-22 13:12:00,82.0,70.0,30.03,South,176,0.0,0.0,67,0.00,,,0.00,,2013-08-22 18:12:00,
2013-08-22 13:22:00,84.0,71.0,30.03,SSW,192,2.0,2.0,65,0.00,,,0.00,,2013-08-22 18:22:00,
2013-08-22 13:43:00,84.0,70.0,30.03,South,178,1.0,1.0,62,0.00,,,0.00,,2013-08-22 18:43:00,
2013-08-22 13:52:00,85.0,70.0,30.02,South,180,1.0,1.0,60,0.00,,,0.00,,2013-08-22 18:52:00,
2013-08-22 14:11:00,86.0,70.0,30.05,South,180,0.0,0.0,60,0.00,,,0.00,,2013-08-22 19:11:00,
2013-08-22 14:22:00,85.0,70.0,30.02,South,180,0.0,0.0,62,0.00,,,0.00,,2013-08-22 19:22:00,
2013-08-22 14:53:00,84.0,70.0,30.01,South,180,1.0,1.0,62,0.00,,,0.00,,2013-08-22 19:53:00,
2013-08-22 15:12:00,86.0,70.0,30.01,South,181,5.0,5.0,59,0.00,,,0.00,,2013-08-22 20:12:00,
2013-08-22 15:23:00,86.0,69.0,30.04,South,180,3.0,3.0,58,0.00,,,0.00,,2013-08-22 20:23:00,
2013-08-22 15:42:00,86.0,70.0,30.03,South,182,4.0,4.0,59,0.00,,,0.00,,2013-08-22 20:42:00,
2013-08-22 15:52:00,86.0,69.0,30.01,South,182,0.0,0.0,58,0.00,,,0.00,,2013-08-22 20:52:00,
2013-08-22 16:13:00,86.0,69.0,30.01,South,182,0.0,0.0,58,0.00,,,0.00,,2013-08-22 21:13:00,
2013-08-22 16:22:00,86.0,71.0,30.01,South,182,0.0,0.0,62,0.00,,,0.00,,2013-08-22 21:22:00,
2013-08-22 16:44:00,87.0,71.0,30.03,South,182,0.0,0.0,59,0.00,,,0.00,,2013-08-22 21:44:00,
2013-08-22 16:54:00,86.0,72.0,30.02,South,182,0.0,0.0,63,0.00,,,0.00,,2013-08-22 21:54:00,
2013-08-22 17:13:00,87.0,71.0,30.02,South,182,0.0,0.0,59,0.00,,,0.00,,2013-08-22 22:13:00,
2013-08-22 17:24:00,87.0,70.0,30.02,South,182,0.0,0.0,57,0.00,,,0.00,,2013-08-22 22:24:00,
2013-08-22 17:42:00,88.0,70.0,30.02,South,169,1.0,1.0,55,0.00,,,0.00,,2013-08-22 22:42:00,
2013-08-22 17:53:00,88.0,70.0,30.01,South,169,0.0,0.0,56,0.00,,,0.00,,2013-08-22 22:53:00,
2013-08-22 18:11:00,88.0,69.0,30.02,South,169,0.0,0.0,54,0.00,,,0.00,,2013-08-22 23:11:00,
2013-08-22 18:22:00,88.0,70.0,30.01,South,169,4.0,4.0,56,0.00,,,0.00,,2013-08-22 23:22:00,
2013-08-22 18:52:00,87.0,69.0,29.98,South,169,0.0,0.0,56,0.00,,,0.00,,2013-08-22 23:52:00,
2013-08-22 19:12:00,86.0,69.0,29.98,South,169,0.0,0.0,58,0.00,,,0.00,,2013-08-23 00:12:00,
2013-08-22 19:23:00,85.0,71.0,29.98,South,169,0.0,0.0,64,0.00,,,0.00,,2013-08-23 00:23:00,
2013-08-22 19:42:00,84.0,71.0,29.98,South,169,0.0,0.0,66,0.00,,,0.00,,2013-08-23 00:42:00,
2013-08-22 19:52:00,82.0,70.0,29.98,South,169,0.0,0.0,67,0.00,,,0.00,,2013-08-23 00:52:00,
2013-08-22 20:11:00,82.0,71.0,29.98,South,169,0.0,0.0,70,0.00,,,0.00,,2013-08-23 01:11:00,
2013-08-22 20:21:00,81.0,71.0,29.98,South,169,0.0,0.0,72,0.00,,,0.00,,2013-08-23 01:21:00,
2013-08-22 20:42:00,79.0,71.0,29.98,South,169,0.0,0.0,76,0.00,,,0.00,,2013-08-23 01:42:00,
2013-08-22 20:52:00,78.0,71.0,29.98,South,169,0.0,0.0,79,0.00,,,0.00,,2013-08-23 01:52:00,
2013-08-22 21:11:00,77.0,71.0,29.98,South,169,0.0,0.0,81,0.00,,,0.00,,2013-08-23 02:11:00,
2013-08-22 21:23:00,76.0,70.0,29.98,South,169,0.0,0.0,83,0.00,,,0.00,,2013-08-23 02:23:00,
2013-08-22 21:43:00,75.0,70.0,29.99,South,169,0.0,0.0,85,0.00,,,0.00,,2013-08-23 02:43:00,
2013-08-22 21:52:00,75.0,71.0,30.00,South,169,0.0,0.0,87,0.00,,,0.00,,2013-08-23 02:52:00,
2013-08-22 22:12:00,74.0,70.0,30.00,South,169,0.0,0.0,88,0.00,,,0.00,,2013-08-23 03:12:00,
2013-08-22 22:22:00,74.0,70.0,30.01,South,169,0.0,0.0,88,0.00,,,0.00,,2013-08-23 03:22:00,
2013-08-22 22:55:00,73.0,70.0,30.01,South,169,0.0,0.0,89,0.00,,,0.00,,2013-08-23 03:55:00,
2013-08-22 23:13:00,73.0,70.0,30.01,South,169,0.0,0.0,90,0.00,,,0.00,,2013-08-23 04:13:00,
2013-08-22 23:24:00,72.0,69.0,30.01,South,169,0.0,0.0,91,0.00,,,0.00,,2013-08-23 04:24:00,
2013-08-22 23:43:00,72.0,69.0,30.01,South,169,0.0,0.0,91,0.00,,,0.00,,2013-08-23 04:43:00,
2013-08-22 23:54:00,72.0,70.0,30.01,South,169,0.0,0.0,92,0.00,,,0.00,,2013-08-23 04:54:00,